OIIE METAR and TAF | Updated Today

OIIE METAR

Imam Khomeini International Airport

Observation time: 6 min. ago

OIIE 062000Z 33006KT 8000 NSC 20/01 Q1020

Need help? Read our tutorial on how to read METARs or read the parsed version below.

Imam Khomeini International Airport (OIIE) METAR

  • Weather conditions on Thu, 06 Oct 2022 20:00:00 +0000 (6 min. ago):
  • Present conditions: Dry
  • Clouds: No significant clouds are observed
  • Visibility: 8000 meters
  • Wind: 330 degrees at 6 knots
  • Temperature: 20 celsius
  • Dew point: 1 celsius
  • Pressure: 1020 millibars
  • Remarks: None


Useful to know...

OIIE TAF

Imam Khomeini International Airport

TAF OIIE 061730Z 0618/0724 30010KT 8000 NSC BECMG 0708/0710 13006KT TEMPO 0718/0724 30016KT
Observation time: 2:36 hr. ago
Need help? Read our tutorial on how to read TAFs or read the parsed version below.

Parsed version of TAF for Imam Khomeini International Airport (OIIE)

  • From 06 October at 18:00 UTC, to day 07 of the month at 24:00 UTC
  • Clouds: No significant clouds are observed
  • Visibility: 8000 meters
  • Wind: 300 degrees at 10
  • Expected to arise soon, from 07 October at 08:00 UTC, to day 07 of the month at 10:00 UTC
  • Wind: 130 degrees at 6
  • Expected to arise temporarily, from 07 October at 18:00 UTC, to day 07 of the month at 24:00 UTC
  • Wind: 300 degrees at 16